Погода Маянина неделю

Центральная Провинция, Малави

21 - 27 июня
  • 21июня
    Сегодня
    +9°
    +22°
    Небольшая облачность
    ВремяПогодаТемператураВлажностьДавлениеВетер, м/сВероятность осадков
    02:00Ясно и безоблачно+14°C82 %642 мм3.3 м/с5 %
    05:00Практически безоблачно+13°C90 %642 мм3.1 м/с5 %
    08:00Ясно и безоблачно+16°C77 %645 мм3.0 м/с5 %
    11:00Ясно и безоблачно+20°C60 %645 мм3.3 м/с5 %
    14:00Небольшая облачность+21°C52 %644 мм3.1 м/с5 %
    17:00Ясно и безоблачно+19°C63 %644 мм3.2 м/с5 %
    20:00Ясно и безоблачно+16°C69 %643 мм2.4 м/с5 %
    23:00Ясно и безоблачно+13°C72 %643 мм2.4 м/с5 %
  • 22июня
    Суббота
    +9°
    +22°
    Ясно и безоблачно
    ВремяПогодаТемператураВлажностьДавлениеВетер, м/сВероятность осадков
    02:00Ясно и безоблачно+10°C84 %640 мм1.5 м/с5 %
    05:00Ясно и безоблачно+10°C86 %640 мм1.1 м/с5 %
    08:00Ясно и безоблачно+15°C72 %644 мм1.9 м/с5 %
    11:00Ясно и безоблачно+20°C56 %645 мм3.0 м/с5 %
    14:00Ясно и безоблачно+22°C51 %644 мм2.7 м/с5 %
    17:00Ясно и безоблачно+19°C61 %643 мм3.1 м/с5 %
    20:00Ясно и безоблачно+15°C72 %643 мм2.6 м/с5 %
    23:00Ясно и безоблачно+12°C81 %642 мм2.0 м/с5 %
  • 23июня
    Воскресенье
    +10°
    +21°
    Небольшая облачность
    ВремяПогодаТемператураВлажностьДавлениеВетер, м/сВероятность осадков
    02:00Ясно и безоблачно+11°C87 %641 мм1.8 м/с5 %
    05:00Ясно и безоблачно+9°C90 %640 мм1.6 м/с5 %
    08:00Ясно и безоблачно+15°C76 %644 мм2.2 м/с4 %
    11:00Практически безоблачно+19°C55 %645 мм5.0 м/с6 %
    14:00Небольшая облачность+21°C47 %644 мм4.6 м/с4 %
    17:00Ясно и безоблачно+20°C58 %644 мм4.1 м/с5 %
    20:00Практически безоблачно+15°C71 %643 мм2.9 м/с5 %
    23:00Ясно и безоблачно+13°C76 %643 мм2.5 м/с5 %
  • 24июня
    Понедельник
    +9°
    +22°
    Облачно с прояснениями
    ВремяПогодаТемператураВлажностьДавлениеВетер, м/сВероятность осадков
    02:00Практически безоблачно+12°C96 %641 мм2.0 м/с5 %
    05:00Ясно и безоблачно+11°C96 %641 мм1.7 м/с5 %
    08:00Ясно и безоблачно+14°C81 %644 мм2.5 м/с5 %
    11:00Практически безоблачно+19°C55 %645 мм4.8 м/с10 %
    14:00Облачно с прояснениями+21°C49 %644 мм3.8 м/с10 %
    17:00Ясно и безоблачно+19°C59 %644 мм3.7 м/с4 %
    20:00Ясно и безоблачно+15°C62 %643 мм3.1 м/с7 %
    23:00Ясно и безоблачно+13°C65 %642 мм2.3 м/с3 %
Мы используем cookies
Соглашаюсь